CLASSIFICA

MV CROSS 2019 - CR PUGLIA CORSA CAMPESTRE

DIVISIONI:
SERIE1     SERIE2     SERIE3     SERIE4     SERIE5     SOCIETA_FEMMINILE     SOCIETA_MASCHILE     CLASSIFICA:   ASSOLUTA   
CATEGORIE:   TUTTE    |   JM   |   PM   |   SM   |   SM35  
FILTRO:
  Atleta      Team        Pulisci       Atleti classificati SERIE5: 42  

Cliccare sulle colonne per cambiare ordinamento Pagina:   | 1 |
Azioni Pos. M/F Cat. P.Cat. Pett Naz Atleta Squadra Tempo Giri Tempo finale Fraz. G1 Pos. G1 Media G1 Fraz. G2 Pos. G2 Media G2 Fraz. G3 Pos. G3 Media G3 Fraz. G4 Pos. G4 Media G4
11SM1150GUASTAMACCHIA RODOLFOATLETICAMENTE00.19.51 4 00.19.51 00.04.55 2 3,17 Min/Km 00.05.03 2 3,22 Min/Km 00.05.03 2 3,22 Min/Km 00.04.49 1 3,13 Min/Km -
22SM351160QUARATO FRANCESCOTEAM PIANETA SPORT MASSAFRA00.19.54 4 00.19.54 00.04.55 3 3,17 Min/Km 00.05.03 3 3,22 Min/Km 00.05.03 1 3,22 Min/Km 00.04.52 2 3,15 Min/Km -
33SM35232TRENTADUE VINCENZOS.S.D. A.R.L. DYNAMYK FITNESS00.20.10 4 00.20.10 00.04.55 4 3,17 Min/Km 00.05.03 4 3,22 Min/Km 00.05.04 4 3,23 Min/Km 00.05.07 3 3,25 Min/Km -
44SM353141MILELLA FRANCESCOPEDONE-RICCARDI BISCEGLIE00.20.17 4 00.20.17 00.04.55 1 3,17 Min/Km 00.05.03 1 3,22 Min/Km 00.05.04 3 3,23 Min/Km 00.05.14 4 3,30 Min/Km -
55SM2128GAETA GIULIANO ANTONIOA.S.D. MONTEDORO NOCI00.21.03 4 00.21.03 00.04.56 6 3,18 Min/Km 00.05.07 5 3,25 Min/Km 00.05.21 5 3,35 Min/Km 00.05.37 5 3,45 Min/Km -
66SM354140GAROFALO GIUSEPPEPEDONE-RICCARDI BISCEGLIE00.21.13 4 00.21.13 00.05.13 9 3,29 Min/Km 00.05.25 7 3,37 Min/Km 00.05.23 6 3,36 Min/Km 00.05.11 6 3,28 Min/Km -
77SM355153BELOTTI ALESSANDROASD APULIATHLETICA00.21.20 4 00.21.20 00.05.13 8 3,29 Min/Km 00.05.25 8 3,37 Min/Km 00.05.23 7 3,36 Min/Km 00.05.17 7 3,32 Min/Km -
88SM356129SCATTARELLI FRANCESCO SAVERIOA.S.D. MONTEDORO NOCI00.21.33 4 00.21.33 00.05.12 7 3,28 Min/Km 00.05.26 9 3,37 Min/Km 00.05.25 8 3,37 Min/Km 00.05.29 8 3,39 Min/Km -
99SM357136UVA MICHELEFREE RUNNERS MOLFETTA00.21.37 4 00.21.37 00.04.56 5 3,18 Min/Km 00.05.34 6 3,43 Min/Km 00.05.39 9 3,46 Min/Km 00.05.26 9 3,38 Min/Km -
1010SM358130SQUICCIARINI DOMENICOATLETICA ADELFIA00.22.10 4 00.22.10 00.05.19 11 3,33 Min/Km 00.05.37 11 3,45 Min/Km 00.05.40 11 3,47 Min/Km 00.05.32 10 3,41 Min/Km -
1111SM359126D'AMICO DAVIDEA.S.D. MONTEDORO NOCI00.22.12 4 00.22.12 00.05.23 13 3,36 Min/Km 00.05.36 12 3,44 Min/Km 00.05.35 10 3,44 Min/Km 00.05.37 11 3,45 Min/Km -
1212SM3510133RUBINI FRANCESCOFREE RUNNERS MOLFETTA00.22.23 4 00.22.23 00.05.28 15 3,39 Min/Km 00.05.41 15 3,47 Min/Km 00.05.42 14 3,48 Min/Km 00.05.31 12 3,41 Min/Km -
1313SM3161LACARBONARA GIUSEPPEATLETICA TALSANO00.22.26 4 00.22.26 00.05.22 12 3,35 Min/Km 00.05.39 13 3,46 Min/Km 00.05.41 12 3,48 Min/Km 00.05.42 13 3,48 Min/Km -
1414SM3511149SARACINO ANGELO ANTONIOBITONTO SPORTIVA00.22.34 4 00.22.34 00.05.13 10 3,29 Min/Km 00.05.42 10 3,48 Min/Km 00.05.51 13 3,55 Min/Km 00.05.46 14 3,51 Min/Km -
1515SM4152NAPOLETANO PAOLOPOLISPORT CICLO CLUB FASANO00.22.46 4 00.22.46 00.05.28 14 3,39 Min/Km 00.05.40 14 3,47 Min/Km 00.05.47 15 3,51 Min/Km 00.05.49 15 3,53 Min/Km -
1616SM5116PATRUNO MARCOA.S. AMATORI PUTIGNANO00.23.12 4 00.23.12 00.05.38 18 3,46 Min/Km 00.05.39 16 3,47 Min/Km 00.05.54 16 3,56 Min/Km 00.06.00 16 4,00 Min/Km -
1717SM3512123IMBRICI FRANCESCOATLETICA PRO CANOSA00.23.15 4 00.23.15 00.05.46 23 3,51 Min/Km 00.05.50 18 3,53 Min/Km 00.05.53 18 3,56 Min/Km 00.05.45 17 3,51 Min/Km -
1818SM3513113MIRIZZI MICHELE GIANLUCACUS BARI00.23.21 4 00.23.21 00.05.38 16 3,46 Min/Km 00.05.52 17 3,55 Min/Km 00.05.58 17 3,59 Min/Km 00.05.51 18 3,55 Min/Km -
1919SM3514156SCIANARO FABIOASD APULIATHLETICA00.23.34 4 00.23.34 00.05.55 28 3,57 Min/Km 00.05.54 25 3,57 Min/Km 00.05.55 20 3,57 Min/Km 00.05.49 19 3,53 Min/Km -
2020SM3515121DELL'ISOLA ANDREAATLETICA PRO CANOSA00.23.43 4 00.23.43 00.05.49 24 3,53 Min/Km 00.05.55 21 3,57 Min/Km 00.06.00 19 4,00 Min/Km 00.05.57 20 3,59 Min/Km -
2121JM1112MANNESE ROBERTOCUS BARI00.23.45 4 00.23.45 00.05.42 19 3,48 Min/Km 00.05.55 19 3,57 Min/Km 00.06.10 21 4,07 Min/Km 00.05.56 21 3,58 Min/Km -
2222SM3516115VENEZIANI FRANCESCO VALERIOCUS BARI00.23.52 4 00.23.52 00.05.45 22 3,50 Min/Km 00.05.58 20 3,59 Min/Km 00.06.04 22 4,03 Min/Km 00.06.03 22 4,02 Min/Km -
2323SM6118DETOMA VITOA.S.D. AMICI STRADA DEL TESORO00.23.54 4 00.23.54 00.05.52 26 3,55 Min/Km 00.06.04 27 4,03 Min/Km 00.06.07 27 4,05 Min/Km 00.05.49 23 3,53 Min/Km -
2424SM7157CICINATO PASQUALE WALTERATLETICA TRINITAPOLI00.24.00 4 00.24.00 00.05.55 29 3,57 Min/Km 00.05.53 24 3,56 Min/Km 00.06.01 23 4,01 Min/Km 00.06.09 24 4,06 Min/Km -
2525SM3517139CHIAPPERINO LORENZOPEDONE-RICCARDI BISCEGLIE00.24.09 4 00.24.09 00.05.54 27 3,56 Min/Km 00.06.03 28 4,02 Min/Km 00.06.08 28 4,05 Min/Km 00.06.03 25 4,02 Min/Km -
2626SM3518127DE VIRGILIIS COSIMOA.S.D. MONTEDORO NOCI00.24.13 4 00.24.13 00.05.43 20 3,49 Min/Km 00.06.03 22 4,03 Min/Km 00.06.13 24 4,09 Min/Km 00.06.12 26 4,08 Min/Km -
2727SM3519146SABATO FABIOS.S.D. A.R.L. DYNAMYK FITNESS00.24.16 4 00.24.16 00.05.52 25 3,55 Min/Km 00.06.01 26 4,01 Min/Km 00.06.10 26 4,07 Min/Km 00.06.12 27 4,08 Min/Km -
2828SM3520134SICOLO FRANCESCOFREE RUNNERS MOLFETTA00.24.28 4 00.24.28 00.05.44 21 3,50 Min/Km 00.06.03 23 4,03 Min/Km 00.06.15 25 4,10 Min/Km 00.06.25 28 4,17 Min/Km -
2929SM3521155DINOI ALESSANDROASD APULIATHLETICA00.25.34 4 00.25.34 00.06.15 32 4,10 Min/Km 00.06.19 29 4,13 Min/Km 00.06.30 30 4,21 Min/Km 00.06.28 29 4,19 Min/Km -
3030SM3522137SALVEMINI RUGGIEROBARLETTA SPORTIVA00.25.38 4 00.25.38 00.05.38 17 3,46 Min/Km 00.07.00 31 4,40 Min/Km 00.06.00 29 3,59 Min/Km 00.07.00 30 4,40 Min/Km -
3131SM8131DE MUSSO GIULIO VITOFREE RUNNERS MOLFETTA00.25.57 4 00.25.57 00.06.11 30 4,07 Min/Km 00.06.25 30 4,17 Min/Km 00.06.42 31 4,28 Min/Km 00.06.37 31 4,25 Min/Km -
3232SM3523122DI NUNNO CELESTINOATLETICA PRO CANOSA00.26.01 4 00.26.01 00.06.29 38 4,19 Min/Km 00.06.32 34 4,22 Min/Km 00.06.36 32 4,24 Min/Km 00.06.23 32 4,16 Min/Km -
3333SM3524132LORUSSO GIOVANNIFREE RUNNERS MOLFETTA00.26.11 4 00.26.11 00.06.17 35 4,12 Min/Km 00.06.41 33 4,28 Min/Km 00.06.38 33 4,26 Min/Km 00.06.32 33 4,22 Min/Km -
3434SM3525159SALINARI COSIMOA.S.D ATL. PODISTICA PALAGIANO00.26.55 4 00.26.55 00.06.26 37 4,18 Min/Km 00.06.46 37 4,31 Min/Km 00.06.57 36 4,38 Min/Km 00.06.45 34 4,30 Min/Km -
3535SM3526142ALTAMURA DOMENICOBITONTO RUNNERS00.26.59 4 00.26.59 00.06.15 33 4,10 Min/Km 00.06.38 32 4,26 Min/Km 00.06.53 34 4,36 Min/Km 00.07.12 35 4,49 Min/Km -
3636SM3527148ILLUZZI MARCELLOBITONTO SPORTIVA00.27.01 4 00.27.01 00.06.23 36 4,16 Min/Km 00.06.54 38 4,37 Min/Km 00.06.54 38 4,37 Min/Km 00.06.48 36 4,32 Min/Km -
3737SM3528135TAMBORRA ANTONIOFREE RUNNERS MOLFETTA00.27.12 4 00.27.12 00.06.13 31 4,09 Min/Km 00.06.51 36 4,34 Min/Km 00.07.03 35 4,42 Min/Km 00.07.04 37 4,43 Min/Km -
3838SM3529111LENOCI MARCOAMATORI ATL. ACQUAVIVA00.27.18 4 00.27.18 00.06.17 34 4,11 Min/Km 00.06.48 35 4,32 Min/Km 00.07.07 37 4,45 Min/Km 00.07.06 38 4,44 Min/Km -
3939SM3530120DEL VENTO ANTONIO MOSE'ATLETICA PRO CANOSA00.28.49 4 00.28.49 00.06.58 39 4,39 Min/Km 00.07.11 39 4,47 Min/Km 00.07.11 39 4,47 Min/Km 00.07.28 39 4,59 Min/Km -
4040SM3531119LOZITO NICOLAA.S.D. AMICI STRADA DEL TESORO00.32.34 4 00.32.34 00.07.25 40 4,57 Min/Km 00.08.13 40 5,29 Min/Km 00.08.27 40 5,38 Min/Km 00.08.28 40 5,39 Min/Km -
4141PM1144CIMARUSTI MICHELERUNNERS DEL LEVANTE00.33.31 4 00.33.31 00.07.26 42 4,58 Min/Km 00.08.23 41 5,36 Min/Km 00.08.47 41 5,52 Min/Km 00.08.53 41 5,55 Min/Km -
4242SM3532143GRANIERI MICHELEBITONTO RUNNERS00.36.35 4 00.36.35 00.07.26 41 4,58 Min/Km 00.08.59 42 5,59 Min/Km 00.10.19 42 6,53 Min/Km 00.09.50 42 6,34 Min/Km -
Righe per pagina::     TUTTE    |   30   |   50   |   100   Pagina:   | 1 |